Flight Track Log - Related Links

Times and Time Zones

All times are in EST time to prevent confusion due to time zone crossing. See the EGF5338 flight status page for this flight to view local times or setup timezone preferences in your user account.

Time Position Orientation Groundspeed Altitude Reporting Facility
EST Latitude Longitude Course Direction KTS MPH feet Rate Location/Type
02:42PM 42.2118 -85.7800 262° West  Level Estimated
02:43PM 42.2042 -85.8562 262° West  Level Estimated
02:44PM 42.1966 -85.9323 262° West  Level Estimated
02:45PM 42.1889 -86.0084 262° West  Level Estimated
02:46PM 42.1811 -86.0844 262° West  Level Estimated
02:47PM 42.1733 -86.1605 262° West  Level Estimated
02:48PM 42.1654 -86.2365 262° West  Level Estimated
02:49PM 42.1575 -86.3125 262° West  Level Estimated
02:50PM 42.1495 -86.3885 262° West  Level Estimated
02:51PM 42.1415 -86.4645 262° West  Level Estimated
02:52PM 42.1334 -86.5404 262° West  Level Estimated
02:53PM 42.1264 -86.6058 262° West  Level Estimated
02:54PM 42.1194 -86.6712 262° West  Level Estimated
02:55PM 42.1124 -86.7366 262° West  Level Estimated
02:56PM 42.1053 -86.8019 262° West  Level Estimated
02:57PM 42.0981 -86.8672 262° West  Level Estimated
02:58PM 42.0910 -86.9326 262° West  Level Estimated
02:59PM 42.0838 -86.9979 262° West  Level Estimated
03:00PM 42.0767 -87.0614 262° West  Level Estimated
03:01PM 42.0696 -87.1249 261° West  Level Estimated
03:02PM 42.0625 -87.1884 261° West  Level Estimated
03:03PM 42.0554 -87.2519 261° West  Level Estimated
03:04PM 42.0482 -87.3153 261° West  Level Estimated
03:05PM 42.0409 -87.3788 261° West  Level Estimated
03:06PM 42.0337 -87.4422 261° West  Level Estimated
03:07PM 42.0252 -87.5155 261° West  Level Estimated
03:08PM 42.0168 -87.5889 261° West  Level Estimated
03:09PM 42.0082 -87.6621 261° West  Level Estimated

Login

Don't have an account? Register now (free) for customized features, flight alerts, and more!